createdAt,value
2019-05-02T00:07:53.836Z,51.75
2019-05-02T00:13:02.390Z,51.96
2019-05-02T00:15:33.130Z,51.93
2019-05-02T00:23:47.526Z,51.65
2019-05-02T00:26:16.758Z,51.62
2019-05-02T00:28:48.131Z,51.74
2019-05-02T00:33:53.594Z,51.90
2019-05-02T00:36:23.191Z,52.24
2019-05-02T00:38:52.768Z,52.07
2019-05-02T00:43:56.524Z,52.13
2019-05-02T00:46:25.762Z,51.91
2019-05-02T00:48:59.908Z,51.87
2019-05-02T00:51:29.779Z,51.68
2019-05-02T00:53:58.992Z,51.72
2019-05-02T00:56:28.230Z,51.67
2019-05-02T00:58:57.688Z,51.49
2019-05-02T01:01:45.859Z,51.30
2019-05-02T01:09:46.770Z,50.70
2019-05-02T01:12:26.353Z,50.44
2019-05-02T01:14:48.076Z,50.24
2019-05-02T01:17:17.322Z,50.31
2019-05-02T01:19:47.141Z,50.39
2019-05-02T01:22:18.072Z,50.61
2019-05-02T01:24:47.566Z,50.29
2019-05-02T01:27:41.018Z,50.55
2019-05-02T01:33:36.741Z,50.99
2019-05-02T01:36:44.733Z,51.25
2019-05-02T01:39:13.975Z,51.22
2019-05-02T01:41:43.159Z,51.20
2019-05-02T01:44:12.395Z,51.25
2019-05-02T01:46:41.908Z,51.35
2019-05-02T01:49:11.142Z,51.51
2019-05-02T01:51:41.995Z,51.58
2019-05-02T01:54:11.825Z,51.67
2019-05-02T01:56:41.006Z,51.73
2019-05-02T01:59:10.239Z,51.62
2019-05-02T02:01:39.430Z,51.44
2019-05-02T02:04:08.603Z,51.51
2019-05-02T02:06:38.880Z,51.44
2019-05-02T02:09:48.217Z,51.60
2019-05-02T02:12:17.399Z,51.56
2019-05-02T02:14:48.150Z,51.71
2019-05-02T02:17:17.545Z,51.78
2019-05-02T02:22:59.012Z,52.01
2019-05-02T02:31:59.421Z,52.25
2019-05-02T02:34:32.087Z,52.34
2019-05-02T02:37:05.509Z,52.15
2019-05-02T02:39:31.496Z,52.04
2019-05-02T02:42:01.413Z,51.51
2019-05-02T02:44:50.041Z,51.52
2019-05-02T02:47:21.085Z,51.66
2019-05-02T02:49:56.029Z,51.62
2019-05-02T02:52:21.176Z,51.68
2019-05-02T02:54:50.747Z,51.76
2019-05-02T02:57:26.502Z,51.57
2019-05-02T02:59:51.684Z,51.91
2019-05-02T03:02:20.920Z,51.95
2019-05-02T03:04:50.100Z,52.08
2019-05-02T03:07:25.757Z,51.98
2019-05-02T03:09:50.358Z,52.02
2019-05-02T03:20:26.811Z,52.10
2019-05-02T03:22:56.042Z,52.10
2019-05-02T03:25:49.154Z,51.97
2019-05-02T03:27:56.802Z,51.86
2019-05-02T03:30:37.254Z,52.11
2019-05-02T03:33:05.805Z,52.19
2019-05-02T03:35:42.953Z,52.21
2019-05-02T03:37:59.534Z,52.32
2019-05-02T03:41:13.451Z,52.62
2019-05-02T03:43:39.510Z,52.51
2019-05-02T03:46:13.647Z,52.64
2019-05-02T03:48:40.244Z,52.76
2019-05-02T03:51:19.646Z,52.80
2019-05-02T03:53:40.423Z,53.05
2019-05-02T03:56:12.071Z,52.93
2019-05-02T03:58:40.722Z,53.07
2019-05-02T04:01:34.680Z,52.93
2019-05-02T04:04:00.220Z,52.93
2019-05-02T04:10:13.537Z,52.58
2019-05-02T04:16:28.208Z,52.55
2019-05-02T04:19:36.974Z,52.42
2019-05-02T04:22:08.462Z,52.34
2019-05-02T04:24:37.247Z,52.38
2019-05-02T04:27:06.487Z,52.22
2019-05-02T04:30:15.052Z,52.28
2019-05-02T04:32:49.907Z,52.19
2019-05-02T04:35:15.318Z,52.19
2019-05-02T04:37:44.558Z,52.46
2019-05-02T04:40:13.850Z,52.36
2019-05-02T04:42:43.432Z,52.21
2019-05-02T04:45:24.800Z,52.30
2019-05-02T04:47:57.492Z,52.62
2019-05-02T04:50:24.151Z,52.39
2019-05-02T04:52:52.485Z,52.31
2019-05-02T04:55:26.248Z,51.92
2019-05-02T04:57:50.849Z,52.04
2019-05-02T05:01:01.859Z,51.85
2019-05-02T05:03:29.455Z,51.90
2019-05-02T05:06:06.813Z,51.98
2019-05-02T05:09:10.310Z,51.30
2019-05-02T05:11:39.943Z,51.36
2019-05-02T05:14:09.974Z,51.19
2019-05-02T05:16:40.437Z,51.05
2019-05-02T05:19:32.639Z,51.06
2019-05-02T05:30:18.734Z,50.35
2019-05-02T05:32:47.961Z,50.13
2019-05-02T05:35:17.705Z,50.14
2019-05-02T05:37:52.779Z,49.92
2019-05-02T05:40:22.707Z,49.63
2019-05-02T05:42:50.210Z,49.56
2019-05-02T05:45:19.452Z,49.29
2019-05-02T05:47:52.499Z,49.15
2019-05-02T05:52:54.815Z,48.59
2019-05-02T05:55:24.575Z,48.42
2019-05-02T05:58:03.124Z,47.88
2019-05-02T06:00:27.819Z,47.74
2019-05-02T06:03:10.144Z,47.32
2019-05-02T06:05:33.310Z,47.07
2019-05-02T06:07:59.509Z,46.81
2019-05-02T06:10:28.742Z,46.29
2019-05-02T06:12:58.252Z,45.90
2019-05-02T06:15:27.494Z,45.68
2019-05-02T06:17:59.942Z,45.14
2019-05-02T06:20:30.666Z,44.33
2019-05-02T06:23:00.075Z,43.88
2019-05-02T06:25:34.611Z,44.00
2019-05-02T06:28:05.199Z,43.67
2019-05-02T06:30:32.472Z,43.50
2019-05-02T06:33:01.614Z,43.20
2019-05-02T06:35:31.135Z,42.79
2019-05-02T06:38:00.642Z,42.67
2019-05-02T06:40:29.891Z,42.74
2019-05-02T06:42:59.083Z,42.64
2019-05-02T06:45:32.212Z,42.21
2019-05-02T06:48:01.171Z,42.42
2019-05-02T06:50:33.274Z,44.46
2019-05-02T06:53:04.353Z,41.73
2019-05-02T06:55:36.224Z,41.88
2019-05-02T06:58:07.751Z,41.00
2019-05-02T07:00:38.425Z,40.14
2019-05-02T07:03:10.210Z,39.97
2019-05-02T07:05:36.493Z,40.08
2019-05-02T07:08:06.567Z,40.10
2019-05-02T07:10:44.421Z,39.98
2019-05-02T07:13:10.661Z,39.92
2019-05-02T07:15:58.139Z,39.68
2019-05-02T07:21:35.922Z,39.38
2019-05-02T07:24:05.224Z,39.50
2019-05-02T07:26:34.462Z,39.48
2019-05-02T07:29:23.177Z,39.59
2019-05-02T07:31:53.636Z,39.32
2019-05-02T07:34:23.313Z,38.97
2019-05-02T07:36:52.564Z,39.04
2019-05-02T07:39:22.043Z,39.11
2019-05-02T07:41:51.649Z,39.08
2019-05-02T07:44:20.836Z,39.21
2019-05-02T07:46:51.905Z,38.85
2019-05-02T07:49:21.046Z,38.12
2019-05-02T07:51:52.244Z,37.07
2019-05-02T07:54:24.831Z,37.06
2019-05-02T07:56:53.307Z,36.68
2019-05-02T07:59:23.630Z,36.11
2019-05-02T08:01:54.141Z,35.95
2019-05-02T08:04:23.840Z,35.76
2019-05-02T08:06:53.090Z,35.75
2019-05-02T08:09:44.068Z,35.25
2019-05-02T08:14:48.842Z,34.43
2019-05-02T08:17:19.286Z,34.76
2019-05-02T08:19:49.851Z,34.70
2019-05-02T08:22:19.055Z,34.70
2019-05-02T08:24:48.303Z,33.52
2019-05-02T08:27:55.868Z,33.84
2019-05-02T08:30:44.092Z,34.15
2019-05-02T08:33:13.711Z,34.05
2019-05-02T08:35:42.914Z,34.20
2019-05-02T08:38:12.686Z,34.50
2019-05-02T08:40:47.824Z,34.62
2019-05-02T08:43:14.085Z,34.94
2019-05-02T08:45:43.277Z,35.33
2019-05-02T08:48:12.782Z,35.37
2019-05-02T08:51:01.473Z,35.04
2019-05-02T08:53:30.642Z,35.04
2019-05-02T08:55:59.935Z,34.38
2019-05-02T08:58:29.126Z,34.87
2019-05-02T09:00:58.375Z,35.44
2019-05-02T09:03:27.582Z,35.21
2019-05-02T09:06:05.621Z,35.47
2019-05-02T09:08:28.475Z,35.36
2019-05-02T09:10:57.669Z,35.71
2019-05-02T09:13:29.556Z,35.88
2019-05-02T09:15:58.282Z,36.25
2019-05-02T09:18:35.280Z,36.15
2019-05-02T09:20:59.762Z,35.69
2019-05-02T09:23:33.270Z,35.33
2019-05-02T09:25:59.937Z,35.40
2019-05-02T09:28:29.536Z,34.86
2019-05-02T09:31:07.050Z,34.53
2019-05-02T09:33:56.940Z,34.89
2019-05-02T09:36:26.509Z,34.89
2019-05-02T09:39:14.830Z,35.25
2019-05-02T09:41:44.311Z,35.25
2019-05-02T09:44:18.455Z,35.03
2019-05-02T09:46:47.491Z,34.22
2019-05-02T09:49:16.550Z,33.85
2019-05-02T09:51:50.343Z,34.58
2019-05-02T09:54:17.303Z,33.76
2019-05-02T09:56:46.546Z,33.86
2019-05-02T10:01:52.733Z,33.71
2019-05-02T10:04:23.333Z,33.70
2019-05-02T10:06:52.679Z,34.28
2019-05-02T10:09:25.740Z,34.17
2019-05-02T10:11:53.273Z,34.11
2019-05-02T10:14:22.812Z,33.13
2019-05-02T10:16:57.611Z,32.42
2019-05-02T10:19:26.128Z,32.42
2019-05-02T10:24:51.848Z,33.25
2019-05-02T10:27:21.675Z,33.28
2019-05-02T10:29:52.538Z,33.71
2019-05-02T10:32:23.159Z,33.49
2019-05-02T10:34:55.843Z,33.20
2019-05-02T10:37:23.295Z,32.61
2019-05-02T10:39:55.654Z,31.89
2019-05-02T10:42:23.464Z,32.06
2019-05-02T10:44:52.646Z,31.57
2019-05-02T10:47:22.244Z,31.57
2019-05-02T10:52:57.035Z,31.88
2019-05-02T10:55:26.220Z,32.02
2019-05-02T10:57:55.515Z,32.83
2019-05-02T11:01:04.087Z,32.89
2019-05-02T11:09:26.299Z,31.18
2019-05-02T11:11:55.110Z,31.08
2019-05-02T11:14:43.553Z,30.39
2019-05-02T11:17:32.380Z,29.94
2019-05-02T11:20:22.435Z,30.28
2019-05-02T11:25:39.837Z,31.55
2019-05-02T11:28:09.024Z,31.69
2019-05-02T11:30:38.924Z,30.40
2019-05-02T11:33:08.115Z,29.88
2019-05-02T11:35:41.617Z,30.95
2019-05-02T11:38:08.703Z,31.89
2019-05-02T11:40:39.663Z,31.68
2019-05-02T11:43:08.865Z,31.80
2019-05-02T11:45:38.382Z,30.90
2019-05-02T11:48:09.235Z,30.58
2019-05-02T11:50:38.647Z,30.57
2019-05-02T11:53:22.318Z,29.91
2019-05-02T11:55:41.306Z,30.64
2019-05-02T11:58:12.428Z,30.28
2019-05-02T12:00:48.028Z,30.99
2019-05-02T12:03:35.447Z,31.21
2019-05-02T12:06:06.481Z,30.85
2019-05-02T12:08:33.062Z,30.04
2019-05-02T12:11:03.887Z,30.18
2019-05-02T12:13:33.283Z,29.95
2019-05-02T12:16:03.970Z,29.76
2019-05-02T12:18:33.506Z,29.22
2019-05-02T12:21:02.768Z,28.76
2019-05-02T12:23:32.151Z,29.08
2019-05-02T12:26:02.761Z,29.22
2019-05-02T12:28:32.711Z,28.89
2019-05-02T12:31:02.705Z,28.08
2019-05-02T12:33:36.454Z,28.72
2019-05-02T12:36:08.549Z,28.66
2019-05-02T12:38:38.385Z,27.55
2019-05-02T12:41:19.619Z,27.49
2019-05-02T12:43:38.522Z,27.73
2019-05-02T12:46:07.760Z,27.89
2019-05-02T12:48:37.232Z,26.42
2019-05-02T12:51:06.751Z,25.93
2019-05-02T12:53:35.943Z,26.03
2019-05-02T12:56:05.467Z,26.33
2019-05-02T12:58:34.685Z,26.64
2019-05-02T13:01:04.299Z,27.12
2019-05-02T13:03:44.453Z,26.04
2019-05-02T13:06:13.699Z,26.46
2019-05-02T13:08:48.938Z,26.82
2019-05-02T13:11:37.031Z,27.18
2019-05-02T13:14:04.024Z,27.57
2019-05-02T13:16:33.639Z,27.56
2019-05-02T13:19:06.218Z,27.23
2019-05-02T13:21:43.062Z,26.74
2019-05-02T13:24:19.319Z,26.67
2019-05-02T13:26:52.019Z,26.07
2019-05-02T13:29:19.465Z,26.02
2019-05-02T13:31:54.831Z,23.71
2019-05-02T13:34:43.664Z,22.61
2019-05-02T13:37:14.615Z,22.99
2019-05-02T13:39:57.391Z,23.72
2019-05-02T13:42:26.637Z,23.83
2019-05-02T13:45:02.462Z,24.29
2019-05-02T13:47:32.576Z,23.56
2019-05-02T13:50:03.882Z,23.82
2019-05-02T13:52:33.285Z,24.27
2019-05-02T13:55:03.513Z,24.61
2019-05-02T13:57:35.043Z,24.40
2019-05-02T14:00:04.435Z,24.01
2019-05-02T14:02:36.387Z,23.42
2019-05-02T14:05:06.930Z,23.53
2019-05-02T14:07:36.134Z,23.32
2019-05-02T14:10:12.171Z,23.50
2019-05-02T14:12:47.318Z,24.04
2019-05-02T14:15:18.544Z,23.99
2019-05-02T14:17:47.727Z,23.11
2019-05-02T14:20:22.164Z,22.91
2019-05-02T14:22:52.540Z,22.97
2019-05-02T14:25:22.408Z,23.17
2019-05-02T14:27:55.526Z,21.27
2019-05-02T14:30:36.213Z,20.94
2019-05-02T14:32:56.291Z,20.58
2019-05-02T14:35:28.481Z,20.18
2019-05-02T14:38:16.417Z,20.46
2019-05-02T14:40:52.489Z,21.04
2019-05-02T14:43:44.558Z,21.76
2019-05-02T14:46:10.221Z,21.87
2019-05-02T14:48:45.346Z,22.32
2019-05-02T14:51:16.769Z,22.36
2019-05-02T14:53:44.050Z,22.09
2019-05-02T14:56:24.842Z,22.93
2019-05-02T14:58:54.077Z,23.15
2019-05-02T15:03:58.431Z,23.04
2019-05-02T15:06:31.584Z,23.02
2019-05-02T15:08:59.663Z,22.50
2019-05-02T15:11:32.303Z,22.04
2019-05-02T15:13:59.799Z,22.19
2019-05-02T15:16:39.578Z,22.17
2019-05-02T15:19:01.996Z,21.34
2019-05-02T15:21:42.316Z,22.71
2019-05-02T15:24:11.987Z,22.37
2019-05-02T15:26:41.850Z,22.26
2019-05-02T15:29:18.835Z,21.88
2019-05-02T15:31:47.461Z,21.67
2019-05-02T15:34:23.308Z,21.68
2019-05-02T15:36:53.149Z,22.68
2019-05-02T15:41:53.307Z,22.80
2019-05-02T15:44:27.010Z,22.98
2019-05-02T15:46:58.448Z,23.10
2019-05-02T15:49:27.186Z,22.47
2019-05-02T15:51:57.195Z,22.61
2019-05-02T15:54:26.834Z,22.82
2019-05-02T15:57:00.950Z,22.80
2019-05-02T15:59:37.439Z,22.94
2019-05-02T16:02:09.767Z,23.21
2019-05-02T16:04:41.728Z,22.69
2019-05-02T16:07:12.131Z,22.65
2019-05-02T16:09:41.935Z,22.23
2019-05-02T16:12:12.283Z,21.32
2019-05-02T16:14:42.473Z,21.32
2019-05-02T16:17:12.568Z,21.28
2019-05-02T16:19:47.141Z,20.71
2019-05-02T16:22:17.760Z,21.26
2019-05-02T16:24:49.118Z,20.86
2019-05-02T16:27:21.969Z,21.23
2019-05-02T16:29:49.236Z,20.57
2019-05-02T16:32:37.821Z,19.79
2019-05-02T16:35:13.559Z,18.41
2019-05-02T16:37:38.794Z,18.14
2019-05-02T16:40:09.405Z,17.95
2019-05-02T16:42:41.694Z,18.31
2019-05-02T16:45:11.823Z,18.46
2019-05-02T16:47:42.325Z,19.60
2019-05-02T16:50:12.420Z,23.10
2019-05-02T16:52:43.630Z,25.49
2019-05-02T16:55:20.706Z,26.68
2019-05-02T16:57:47.354Z,27.46
2019-05-02T17:00:22.687Z,28.30
2019-05-02T17:02:52.541Z,29.25
2019-05-02T17:05:22.128Z,30.12
2019-05-02T17:08:16.742Z,30.65
2019-05-02T17:10:53.615Z,30.91
2019-05-02T17:13:19.329Z,30.99
2019-05-02T17:15:48.515Z,31.40
2019-05-02T17:18:18.341Z,32.02
2019-05-02T17:20:53.559Z,32.39
2019-05-02T17:23:18.867Z,32.95
2019-05-02T17:25:48.321Z,32.93
2019-05-02T17:28:17.570Z,33.08
2019-05-02T17:30:47.122Z,33.26
2019-05-02T17:33:16.658Z,33.33
2019-05-02T17:35:49.957Z,33.51
2019-05-02T17:38:19.125Z,33.59
2019-05-02T17:40:47.773Z,33.88
2019-05-02T17:43:17.008Z,33.91
2019-05-02T17:45:47.954Z,34.29
2019-05-02T17:48:17.865Z,34.49
2019-05-02T17:51:09.351Z,34.48
2019-05-02T17:53:41.095Z,34.50
2019-05-02T17:56:13.054Z,34.75
2019-05-02T17:58:47.317Z,34.82
2019-05-02T18:01:17.039Z,35.07
2019-05-02T18:03:46.930Z,36.58
2019-05-02T18:06:17.364Z,38.34
2019-05-02T18:08:51.670Z,40.44
2019-05-02T18:11:17.946Z,41.91
2019-05-02T18:13:48.067Z,42.17
2019-05-02T18:16:17.933Z,42.67
2019-05-02T18:18:47.128Z,43.14
2019-05-02T18:21:17.248Z,43.30
2019-05-02T18:23:47.907Z,44.31
2019-05-02T18:26:17.171Z,43.21
2019-05-02T18:28:49.270Z,43.48
2019-05-02T18:31:18.008Z,43.60
2019-05-02T18:33:47.558Z,43.92
2019-05-02T18:36:17.390Z,44.04
2019-05-02T18:38:54.295Z,44.15
2019-05-02T18:41:18.722Z,44.79
2019-05-02T18:43:48.197Z,44.87
2019-05-02T18:46:19.831Z,45.20
2019-05-02T18:48:49.242Z,45.25
2019-05-02T18:51:19.341Z,45.70
2019-05-02T18:53:48.525Z,46.19
2019-05-02T18:56:17.783Z,46.54
2019-05-02T18:58:47.314Z,46.95
2019-05-02T19:01:18.474Z,47.25
2019-05-02T19:03:54.361Z,47.45
2019-05-02T19:06:19.749Z,47.46
2019-05-02T19:08:52.251Z,47.58
2019-05-02T19:11:22.113Z,47.05
2019-05-02T19:13:52.709Z,46.56
2019-05-02T19:16:24.929Z,47.32
2019-05-02T19:18:57.264Z,47.85
2019-05-02T19:21:31.943Z,48.30
2019-05-02T19:23:59.495Z,48.93
2019-05-02T19:26:30.135Z,49.35
2019-05-02T19:29:17.190Z,49.69
2019-05-02T19:31:47.766Z,50.15
2019-05-02T19:34:22.947Z,50.50
2019-05-02T19:36:48.706Z,51.41
2019-05-02T19:39:18.586Z,51.85
2019-05-02T19:41:48.706Z,51.82
2019-05-02T19:44:22.947Z,51.59
2019-05-02T19:46:49.236Z,52.41
2019-05-02T19:49:18.422Z,52.85
2019-05-02T19:51:50.364Z,53.11
2019-05-02T19:54:19.134Z,53.42
2019-05-02T19:56:49.054Z,53.80
2019-05-02T19:59:24.631Z,53.97
2019-05-02T20:01:49.378Z,54.12
2019-05-02T20:04:18.557Z,54.33
2019-05-02T20:06:47.789Z,54.67
2019-05-02T20:09:17.355Z,54.97
2019-05-02T20:11:46.866Z,55.03
2019-05-02T20:14:16.270Z,54.94
2019-05-02T20:16:52.862Z,54.84
2019-05-02T20:19:25.713Z,54.65
2019-05-02T20:22:12.137Z,54.92
2019-05-02T20:25:06.121Z,55.09
2019-05-02T20:27:35.638Z,55.62
2019-05-02T20:30:06.331Z,55.92
2019-05-02T20:32:35.849Z,56.09
2019-05-02T20:35:05.268Z,56.22
2019-05-02T20:37:34.447Z,56.24
2019-05-02T20:40:04.065Z,56.43
2019-05-02T20:42:34.000Z,56.21
2019-05-02T20:45:03.424Z,57.16
2019-05-02T20:47:32.662Z,57.79
2019-05-02T20:50:02.681Z,58.70
2019-05-02T20:52:32.535Z,59.36
2019-05-02T20:55:01.929Z,60.19
2019-05-02T20:57:31.773Z,60.30
2019-05-02T21:00:01.909Z,61.81
2019-05-02T21:02:31.853Z,63.65
2019-05-02T21:05:02.764Z,66.17
2019-05-02T21:08:03.436Z,67.37
2019-05-02T21:10:37.229Z,68.56
2019-05-02T21:13:06.822Z,70.37
2019-05-02T21:15:36.721Z,71.70
2019-05-02T21:18:06.076Z,72.22
2019-05-02T21:20:35.547Z,72.36
2019-05-02T21:23:04.786Z,73.52
2019-05-02T21:25:34.549Z,74.59
2019-05-02T21:28:03.983Z,75.19
2019-05-02T21:30:33.434Z,74.67
2019-05-02T21:33:03.001Z,73.67
2019-05-02T21:35:32.222Z,73.13
2019-05-02T21:38:01.852Z,72.62
2019-05-02T21:40:32.722Z,73.18
2019-05-02T21:43:02.454Z,72.36
2019-05-02T21:45:31.807Z,72.41
2019-05-02T21:48:02.319Z,71.97
2019-05-02T21:50:54.446Z,72.49
2019-05-02T21:53:32.615Z,72.75
2019-05-02T21:56:07.300Z,72.55
2019-05-02T21:58:36.538Z,73.31
2019-05-02T22:03:46.770Z,73.13
2019-05-02T22:06:16.010Z,73.81
2019-05-02T22:08:45.213Z,73.72
2019-05-02T22:11:14.729Z,73.99
2019-05-02T22:13:44.068Z,73.86
2019-05-02T22:16:13.251Z,73.72
2019-05-02T22:18:42.823Z,73.78
2019-05-02T22:21:12.342Z,73.10
2019-05-02T22:23:42.502Z,73.22
2019-05-02T22:26:12.725Z,74.27
2019-05-02T22:28:42.135Z,74.26
2019-05-02T22:31:12.366Z,74.20
2019-05-02T22:33:44.468Z,74.44
2019-05-02T22:36:12.661Z,74.58
2019-05-02T22:38:50.499Z,73.98
2019-05-02T22:41:22.023Z,74.01
2019-05-02T22:43:51.124Z,74.22
2019-05-02T22:46:38.050Z,74.53
2019-05-02T22:49:07.309Z,74.82
2019-05-02T22:51:36.519Z,74.11
2019-05-02T22:54:06.130Z,74.68
2019-05-02T22:56:35.641Z,75.13
2019-05-02T22:59:04.913Z,75.35
2019-05-02T23:01:34.457Z,75.13
2019-05-02T23:04:03.742Z,74.57
2019-05-02T23:06:32.972Z,74.91
2019-05-02T23:09:02.162Z,74.18
2019-05-02T23:11:32.979Z,73.43
2019-05-02T23:14:02.170Z,73.34
2019-05-02T23:16:32.267Z,73.33
2019-05-02T23:19:02.883Z,73.07
2019-05-02T23:21:32.629Z,72.95
2019-05-02T23:24:03.555Z,73.00
2019-05-02T23:26:51.917Z,73.39
2019-05-02T23:29:22.581Z,73.16
2019-05-02T23:31:51.929Z,73.40
2019-05-02T23:34:23.546Z,73.63
2019-05-02T23:36:52.455Z,73.28
2019-05-02T23:39:21.954Z,73.05
2019-05-02T23:41:52.489Z,73.90
2019-05-02T23:44:22.887Z,73.97
2019-05-02T23:46:52.137Z,73.91
2019-05-02T23:49:22.126Z,74.39
2019-05-02T23:51:51.309Z,73.64
2019-05-02T23:54:22.049Z,73.46
2019-05-02T23:56:51.573Z,73.20
2019-05-02T23:59:22.346Z,72.91
